Apollo, Pennsylvania
Current Conditions -  °F | °C
As of 1:32 PM on Thursday 29 Jan 2015 (Local Time) from KLBE Reporting Station
Light Rain Light Rain  
Wind Chill: 32°   Ceiling: 2800
Heat Index: 37°   Visibility: 4mi
Dew Point: 32°   Wind: 7mph
Humidity: 81%   Direction: 160°SSE
Pressure: 29.89"   Gusts: NA
Location:  40.58°N, 79.57°W
Report Text: KLBE 291832Z 16006KT 4SM -RA BR OVC028 03/00 A2989
Loading
Personal Weather Stations






























Interactive Weather Map New forecast layout! Learn more

10-Day Weather Forecast

Advertisements
Track Severe Weather on mobile